Time;durP1;ratioP1;P1;durP2;ratioP2;P2;SDS_P1;SDS_P2;PMS_P1;PMS_P2;Temp;Humidity;BMP_temperature;BMP_pressure;BME280_temperature;BME280_humidity;BME280_pressure;Samples;Min_cycle;Max_cycle;Signal;HPM_P1;HPM_P2
2023/04/27 00:01:40;;;;;;;7.20;2.10;;;6.10;99.90;;;6.80;100.00;98275.28;4928217;29;20494;-76
2023/04/27 00:04:10;;;;;;;8.83;2.20;;;6.10;99.90;;;6.74;100.00;98280.25;4923278;29;21278;-76
2023/04/27 00:06:40;;;;;;;3.90;2.20;;;6.10;99.90;;;6.70;100.00;98271.97;4928740;29;20474;-76
2023/04/27 00:09:10;;;;;;;3.90;2.50;;;6.00;99.90;;;6.74;100.00;98275.06;4927266;29;20473;-76
2023/04/27 00:11:42;;;;;;;5.53;2.23;;;5.90;99.90;;;6.70;100.00;98279.75;4927271;29;20874;-76
2023/04/27 00:14:12;;;;;;;3.53;1.83;;;5.90;99.90;;;6.63;100.00;98267.59;4927805;29;20529;-76
2023/04/27 00:16:42;;;;;;;3.10;2.30;;;6.00;99.90;;;6.63;100.00;98275.38;4929977;29;20462;-76
2023/04/27 00:19:14;;;;;;;3.77;1.90;;;5.80;99.90;;;6.62;100.00;98271.97;4926655;29;20492;-76
2023/04/27 00:21:43;;;;;;;11.33;2.10;;;5.90;99.90;;;6.63;100.00;98275.38;4925849;29;21008;-76
2023/04/27 00:24:13;;;;;;;4.20;1.80;;;5.80;99.90;;;6.64;100.00;98276.97;4924290;29;20505;-76
2023/04/27 00:26:44;;;;;;;3.30;2.10;;;5.80;99.90;;;6.63;100.00;98277.97;4925026;29;20525;-77
2023/04/27 00:29:14;;;;;;;3.97;2.03;;;5.80;99.90;;;6.57;100.00;98282.81;4925533;29;20463;-76
2023/04/27 00:31:44;;;;;;;7.93;2.50;;;5.80;99.90;;;6.56;100.00;98283.78;4926228;29;20602;-76
2023/04/27 00:34:13;;;;;;;6.90;2.10;;;5.70;99.90;;;6.48;100.00;98281.16;4928439;29;20529;-76
2023/04/27 00:36:43;;;;;;;7.93;1.73;;;5.70;99.90;;;6.44;100.00;98279.84;4927159;29;20980;-76
2023/04/27 00:39:14;;;;;;;7.80;3.40;;;5.70;99.90;;;6.44;100.00;98285.03;4927163;29;20564;-76
2023/04/27 00:41:45;;;;;;;2.10;1.90;;;5.60;99.90;;;6.42;100.00;98279.16;4926815;29;20477;-76
2023/04/27 00:44:22;;;;;;;2.47;1.87;;;5.60;99.90;;;6.37;100.00;98275.41;4928524;29;20470;-77
2023/04/27 00:46:51;;;;;;;2.43;1.80;;;5.60;99.90;;;6.38;100.00;98283.06;4927372;29;20480;-76
2023/04/27 00:49:21;;;;;;;4.13;2.00;;;5.60;99.90;;;6.31;100.00;98276.84;4926870;29;21068;-76
2023/04/27 00:51:51;;;;;;;4.00;2.00;;;5.60;99.90;;;6.29;100.00;98275.34;4926157;29;21012;-76
2023/04/27 00:54:21;;;;;;;5.87;2.50;;;5.50;99.90;;;6.28;100.00;98278.94;4926168;29;20513;-76
2023/04/27 00:56:52;;;;;;;2.10;1.90;;;5.50;99.90;;;6.26;100.00;98275.66;4923624;29;20520;-75
2023/04/27 00:59:22;;;;;;;2.10;1.83;;;5.50;99.90;;;6.25;100.00;98271.47;4924423;29;20553;-76
2023/04/27 01:01:52;;;;;;;3.37;1.73;;;5.40;99.90;;;6.18;100.00;98276.44;4924074;29;21001;-75
2023/04/27 01:04:22;;;;;;;2.53;1.90;;;5.40;99.90;;;6.20;100.00;98279.69;4924439;29;21109;-76
2023/04/27 01:06:53;;;;;;;2.03;1.83;;;5.40;99.90;;;6.14;100.00;98282.91;4922928;29;20521;-76
2023/04/27 01:09:23;;;;;;;4.20;2.00;;;5.40;99.90;;;6.15;100.00;98281.13;4924992;29;20468;-76
2023/04/27 01:11:54;;;;;;;2.37;2.13;;;5.30;99.90;;;6.10;100.00;98285.97;4921641;29;20569;-77
2023/04/27 01:14:22;;;;;;;2.80;1.87;;;5.30;99.90;;;6.07;100.00;98281.91;4925908;29;20513;-76
2023/04/27 01:16:52;;;;;;;1.80;1.67;;;5.30;99.90;;;6.04;100.00;98287.38;4921587;29;21045;-76
2023/04/27 01:19:23;;;;;;;3.83;2.10;;;5.30;99.90;;;6.01;100.00;98277.31;4923976;29;20533;-76
2023/04/27 01:21:52;;;;;;;3.83;2.00;;;5.20;99.90;;;6.05;100.00;98283.81;4922644;29;20484;-76
2023/04/27 01:24:22;;;;;;;12.50;2.23;;;5.20;99.90;;;5.99;100.00;98272.28;4924318;29;21100;-76
2023/04/27 01:26:52;;;;;;;2.50;2.00;;;5.20;99.90;;;6.00;100.00;98275.69;4924671;29;20830;-76
2023/04/27 01:29:22;;;;;;;4.20;2.57;;;5.20;99.90;;;6.01;100.00;98279.91;4925372;29;20569;-76
2023/04/27 01:31:53;;;;;;;5.03;2.30;;;5.20;99.90;;;5.93;100.00;98274.66;4923879;29;20476;-76
2023/04/27 01:34:22;;;;;;;7.97;2.17;;;5.20;99.90;;;5.80;100.00;98271.59;4926223;29;20518;-76
2023/04/27 01:36:53;;;;;;;2.50;1.90;;;5.30;99.90;;;5.77;100.00;98284.88;4923798;29;20521;-77
2023/04/27 01:39:24;;;;;;;5.07;2.63;;;5.10;99.90;;;5.76;100.00;98285.88;4920343;29;20468;-76
2023/04/27 01:41:53;;;;;;;4.27;2.20;;;5.00;99.90;;;5.75;100.00;98274.66;4922754;29;20544;-76
2023/04/27 01:44:26;;;;;;;1.87;1.70;;;5.00;99.90;;;5.74;100.00;98267.03;4923978;29;21039;-76
2023/04/27 01:46:56;;;;;;;9.03;2.37;;;5.00;99.90;;;5.71;100.00;98275.13;4923678;29;20965;-75
2023/04/27 01:49:25;;;;;;;2.60;2.00;;;5.00;99.90;;;5.67;100.00;98276.38;4924581;29;20521;-77
2023/04/27 01:51:55;;;;;;;2.47;1.80;;;4.90;99.90;;;5.68;100.00;98280.59;4923195;29;20465;-75
2023/04/27 01:54:28;;;;;;;3.10;1.80;;;4.90;99.90;;;5.67;100.00;98284.16;4925106;29;20577;-76
2023/04/27 01:56:58;;;;;;;5.87;2.90;;;4.90;99.90;;;5.54;100.00;98285.38;4923774;29;20485;-76
2023/04/27 01:59:27;;;;;;;2.40;1.80;;;4.90;99.90;;;5.55;100.00;98281.78;4925294;29;20465;-76
2023/04/27 02:01:57;;;;;;;2.83;1.90;;;4.90;99.90;;;5.56;100.00;98288.63;4924728;29;20496;-76
2023/04/27 02:04:26;;;;;;;3.70;2.27;;;4.80;99.90;;;5.59;100.00;98290.91;4924604;29;20555;-76
2023/04/27 02:06:57;;;;;;;2.57;1.93;;;4.80;99.90;;;5.57;100.00;98292.03;4923412;29;21219;-76
2023/04/27 02:09:29;;;;;;;3.33;2.10;;;4.80;99.90;;;5.51;100.00;98288.25;4924100;29;20467;-76
2023/04/27 02:11:58;;;;;;;4.37;2.03;;;4.80;99.90;;;5.50;100.00;98293.59;4922858;29;21624;-76
2023/04/27 02:14:29;;;;;;;6.13;1.80;;;4.70;99.90;;;5.45;100.00;98291.44;4921937;29;20504;-76
2023/04/27 02:16:59;;;;;;;3.67;2.00;;;4.70;99.90;;;5.43;100.00;98289.97;4925278;29;20484;-76
2023/04/27 02:19:29;;;;;;;3.77;1.87;;;4.70;99.90;;;5.41;100.00;98295.31;4921323;29;20472;-76
2023/04/27 02:22:00;;;;;;;4.17;2.03;;;4.80;99.90;;;5.36;100.00;98297.53;4924488;29;20484;-76
2023/04/27 02:24:32;;;;;;;3.13;1.83;;;4.70;99.90;;;5.40;100.00;98304.03;4924034;29;20545;-76
2023/04/27 02:27:02;;;;;;;3.33;2.10;;;4.60;99.90;;;5.45;100.00;98299.22;4922535;29;20932;-76
2023/04/27 02:29:32;;;;;;;4.80;2.27;;;4.60;99.90;;;5.39;100.00;98297.22;4925314;29;20456;-76
2023/04/27 02:32:02;;;;;;;4.63;1.93;;;4.70;99.90;;;5.37;100.00;98301.75;4925737;29;20488;-76
2023/04/27 02:34:33;;;;;;;12.53;2.20;;;4.60;99.90;;;5.40;100.00;98298.84;4925628;29;20492;-76
2023/04/27 02:37:03;;;;;;;5.73;2.43;;;4.60;99.90;;;5.39;100.00;98304.19;4923144;29;20498;-76
2023/04/27 02:39:35;;;;;;;2.50;2.00;;;4.60;99.90;;;5.36;100.00;98289.75;4921377;29;21012;-76
2023/04/27 02:42:05;;;;;;;4.33;1.90;;;4.70;99.90;;;5.40;100.00;98287.66;4922780;29;20512;-76
2023/04/27 02:44:36;;;;;;;8.80;1.97;;;4.70;99.90;;;5.44;100.00;98289.81;4939345;29;20837;-76
2023/04/27 02:47:06;;;;;;;7.30;2.40;;;4.70;99.90;;;5.42;100.00;98283.94;4939431;28;20478;-76
2023/04/27 02:49:35;;;;;;;3.77;1.63;;;4.70;99.90;;;5.40;100.00;98288.50;4926367;29;20846;-76
2023/04/27 02:52:07;;;;;;;4.23;2.00;;;4.70;99.90;;;5.39;100.00;98288.63;4924022;29;20468;-75
2023/04/27 02:54:38;;;;;;;2.50;2.00;;;4.70;99.90;;;5.36;100.00;98289.75;4924444;29;20918;-76
2023/04/27 02:57:09;;;;;;;11.20;2.73;;;4.70;99.90;;;5.35;100.00;98290.69;4924398;29;20539;-76
2023/04/27 02:59:39;;;;;;;4.60;1.97;;;4.70;99.90;;;5.31;100.00;98289.34;4924849;29;20518;-76
2023/04/27 03:02:08;;;;;;;3.50;2.03;;;4.70;99.90;;;5.33;100.00;98282.25;4924647;29;20471;-76
2023/04/27 03:04:39;;;;;;;2.80;1.70;;;4.70;99.90;;;5.33;100.00;98284.84;4923270;29;20467;-75
2023/04/27 03:07:10;;;;;;;3.20;2.27;;;4.70;99.90;;;5.35;100.00;98290.69;4920975;29;20508;-76
2023/04/27 03:09:41;;;;;;;4.57;2.27;;;4.80;99.90;;;5.33;100.00;98284.03;4924665;29;20582;-75
2023/04/27 03:12:11;;;;;;;5.50;2.33;;;4.80;99.90;;;5.33;100.00;98289.22;4920755;29;20591;-76
2023/04/27 03:14:42;;;;;;;5.63;2.27;;;4.70;99.90;;;5.33;100.00;98284.84;4923003;29;20474;-75
2023/04/27 03:17:11;;;;;;;5.03;1.90;;;4.70;99.90;;;5.40;100.00;98283.31;4925206;29;20464;-75
2023/04/27 03:19:41;;;;;;;5.40;2.33;;;4.70;99.90;;;5.45;100.00;98283.66;4920998;29;20514;-76
2023/04/27 03:22:11;;;;;;;3.20;2.40;;;4.70;99.90;;;5.46;100.00;98274.09;4922128;29;21214;-75
2023/04/27 03:24:42;;;;;;;5.63;2.53;;;4.80;99.90;;;5.47;100.00;98286.94;4922562;29;20476;-76
2023/04/27 03:27:12;;;;;;;5.13;2.53;;;4.80;99.90;;;5.46;100.00;98280.09;4921550;29;20469;-76
2023/04/27 03:29:42;;;;;;;12.03;2.60;;;4.80;99.90;;;5.46;100.00;98277.50;4924003;29;20581;-76
2023/04/27 03:32:12;;;;;;;5.27;2.10;;;4.80;99.90;;;5.47;100.00;98284.34;4923743;29;20591;-75
2023/04/27 03:34:41;;;;;;;3.37;2.40;;;4.80;99.90;;;5.47;100.00;98286.09;4924075;29;20468;-75
2023/04/27 03:37:11;;;;;;;4.97;2.30;;;4.90;99.90;;;5.51;100.00;98280.47;4922499;29;20473;-75
2023/04/27 03:39:43;;;;;;;4.93;2.43;;;4.80;99.90;;;5.51;100.00;98287.44;4920426;29;20470;-76
2023/04/27 03:42:13;;;;;;;9.87;2.53;;;4.80;99.90;;;5.50;100.00;98276.25;4923163;29;20984;-76
2023/04/27 03:44:43;;;;;;;2.40;1.83;;;4.90;99.90;;;5.52;100.00;98276.09;4923162;29;20507;-75
2023/04/27 03:47:12;;;;;;;5.20;2.23;;;4.80;99.90;;;5.51;100.00;98275.31;4922939;29;20983;-75
2023/04/27 03:49:42;;;;;;;4.53;2.30;;;4.80;99.90;;;5.47;100.00;98275.75;4923896;29;20475;-76
2023/04/27 03:52:12;;;;;;;5.87;2.40;;;4.80;99.90;;;5.46;100.00;98271.50;4922559;29;20485;-76
2023/04/27 03:54:44;;;;;;;3.10;2.13;;;4.80;99.90;;;5.44;100.00;98279.44;4923147;29;20526;-76
2023/04/27 03:57:14;;;;;;;2.30;1.77;;;4.80;99.90;;;5.38;100.00;98280.03;4921161;29;20891;-76
2023/04/27 03:59:44;;;;;;;3.83;2.40;;;4.80;99.90;;;5.28;100.00;98287.06;4922030;29;20466;-76
2023/04/27 04:02:14;;;;;;;3.63;2.33;;;4.70;99.90;;;5.27;100.00;98288.03;4923045;29;20531;-76
2023/04/27 04:04:44;;;;;;;1.90;1.70;;;4.70;99.90;;;5.30;100.00;98282.56;4925855;29;21001;-75
2023/04/27 04:07:14;;;;;;;2.80;2.33;;;4.60;99.90;;;5.28;100.00;98281.88;4927232;29;20554;-77
2023/04/27 04:09:45;;;;;;;2.60;2.03;;;4.60;99.90;;;5.25;100.00;98281.34;4926367;29;20463;-76
2023/04/27 04:12:15;;;;;;;4.70;2.07;;;4.60;99.90;;;5.22;100.00;98289.44;4925700;29;20556;-76
2023/04/27 04:14:47;;;;;;;2.90;2.27;;;4.60;99.90;;;5.13;100.00;98291.16;4929509;29;20561;-76
2023/04/27 04:17:17;;;;;;;4.47;2.40;;;4.50;99.90;;;5.11;100.00;98282.69;4926565;29;20539;-76
2023/04/27 04:19:48;;;;;;;3.37;2.40;;;4.50;99.90;;;5.10;100.00;98291.44;4928395;29;20538;-76
2023/04/27 04:22:18;;;;;;;2.97;2.17;;;4.40;99.90;;;5.06;100.00;98295.28;4923982;29;21026;-76
2023/04/27 04:24:48;;;;;;;6.63;2.37;;;4.40;99.90;;;5.03;100.00;98290.41;4927266;29;20574;-76
2023/04/27 04:27:17;;;;;;;2.20;2.00;;;4.40;99.90;;;4.98;100.00;98287.41;4926557;29;20677;-76
2023/04/27 04:29:47;;;;;;;7.87;2.30;;;4.40;99.90;;;4.98;100.00;98290.00;4927044;29;20471;-76
2023/04/27 04:32:18;;;;;;;2.43;2.10;;;4.30;99.90;;;5.03;100.00;98290.41;4926928;29;20961;-75
2023/04/27 04:34:50;;;;;;;5.23;2.50;;;4.30;99.90;;;5.01;100.00;98294.88;4927405;29;20495;-75
2023/04/27 04:37:21;;;;;;;3.40;2.60;;;4.30;99.90;;;4.99;100.00;98299.41;4926443;29;21025;-77
2023/04/27 04:39:52;;;;;;;2.50;2.17;;;4.30;99.90;;;5.00;100.00;98301.03;4926934;29;20470;-76
2023/04/27 04:42:22;;;;;;;4.60;1.93;;;4.20;99.90;;;5.02;100.00;98304.31;4924842;29;20466;-76
2023/04/27 04:44:52;;;;;;;2.47;2.23;;;4.30;99.90;;;4.99;100.00;98309.78;4926954;29;20546;-76
2023/04/27 04:47:23;;;;;;;4.67;2.50;;;4.20;99.90;;;4.98;100.00;98310.72;4926280;29;20470;-76
2023/04/27 04:49:53;;;;;;;4.97;2.10;;;4.20;99.90;;;4.98;100.00;98316.72;4927725;29;20468;-76
2023/04/27 04:52:23;;;;;;;9.00;2.70;;;4.20;99.90;;;4.98;100.00;98316.72;4926021;29;20467;-76
2023/04/27 04:54:54;;;;;;;2.30;1.90;;;4.20;99.90;;;5.01;100.00;98318.22;4924943;29;20462;-76
2023/04/27 04:57:23;;;;;;;6.10;2.60;;;4.20;99.90;;;4.98;100.00;98313.31;4923516;29;20883;-76
2023/04/27 04:59:53;;;;;;;7.10;2.97;;;4.20;99.90;;;4.98;100.00;98318.50;4925673;29;20472;-76
2023/04/27 05:02:23;;;;;;;2.73;2.10;;;4.20;99.90;;;4.97;100.00;98311.69;4924714;29;20535;-76
2023/04/27 05:04:55;;;;;;;4.07;2.50;;;4.20;99.90;;;4.96;100.00;98315.25;4925482;29;20474;-78
2023/04/27 05:07:25;;;;;;;3.00;1.80;;;4.20;99.90;;;4.92;100.00;98319.09;4924502;29;21190;-77
2023/04/27 05:09:56;;;;;;;2.23;2.03;;;4.20;99.90;;;4.95;100.00;98318.78;4924955;29;20565;-76
2023/04/27 05:12:26;;;;;;;3.73;2.20;;;4.30;99.90;;;4.95;100.00;98324.81;4923221;29;20509;-75
2023/04/27 05:14:57;;;;;;;7.97;2.40;;;4.20;99.90;;;4.96;100.00;98326.41;4924921;29;20473;-76
2023/04/27 05:17:28;;;;;;;3.17;2.03;;;4.20;99.90;;;4.96;100.00;98333.41;4923786;29;20963;-76
2023/04/27 05:19:59;;;;;;;4.63;2.70;;;4.20;99.90;;;4.94;100.00;98330.94;4924417;29;20492;-75
2023/04/27 05:22:29;;;;;;;3.60;2.40;;;4.30;99.90;;;4.98;100.00;98328.88;4923412;29;20542;-76
2023/04/27 05:25:01;;;;;;;3.60;2.20;;;4.20;99.90;;;5.01;100.00;98328.56;4924993;29;20471;-76
2023/04/27 05:27:31;;;;;;;4.83;2.70;;;4.30;99.90;;;5.06;100.00;98332.38;4925387;29;20557;-76
2023/04/27 05:30:01;;;;;;;4.20;2.60;;;4.30;99.90;;;5.11;100.00;98333.69;4926404;29;20458;-76
2023/04/27 05:32:32;;;;;;;4.87;2.60;;;4.30;99.90;;;5.12;100.00;98340.53;4926410;29;20561;-75
2023/04/27 05:35:04;;;;;;;9.83;2.97;;;4.40;99.90;;;5.16;100.00;98337.50;4923688;29;20466;-76
2023/04/27 05:37:34;;;;;;;6.30;3.27;;;4.40;99.90;;;5.20;100.00;98338.84;4926149;29;20505;-76
2023/04/27 05:40:09;;;;;;;11.10;2.90;;;4.40;99.90;;;5.23;100.00;98330.78;4924841;29;20462;-79
2023/04/27 05:42:39;;;;;;;3.20;2.80;;;4.50;99.90;;;5.25;100.00;98339.22;4923924;29;20469;-76
2023/04/27 05:45:12;;;;;;;4.40;2.53;;;4.50;99.90;;;5.23;100.00;98342.91;4924782;29;20820;-76
2023/04/27 05:47:42;;;;;;;4.10;2.90;;;4.50;99.90;;;5.22;100.00;98346.47;4924255;29;20633;-76
2023/04/27 05:50:12;;;;;;;7.20;2.80;;;4.50;99.90;;;5.21;100.00;98342.22;4923325;29;20526;-75
2023/04/27 05:52:42;;;;;;;8.17;4.10;;;4.50;99.90;;;5.22;100.00;98344.69;4921694;29;20475;-75
2023/04/27 05:55:12;;;;;;;5.80;2.60;;;4.60;99.90;;;5.26;100.00;98343.44;4925765;29;20491;-75
2023/04/27 05:57:42;;;;;;;3.13;2.83;;;4.50;99.90;;;5.29;100.00;98353.50;4924288;29;21033;-76
2023/04/27 06:00:18;;;;;;;5.90;2.50;;;4.50;99.90;;;5.33;100.00;98343.66;4924576;29;20882;-76
2023/04/27 06:02:48;;;;;;;8.70;2.70;;;4.60;99.90;;;5.34;100.00;98342.72;4923307;29;20491;-75
2023/04/27 06:05:19;;;;;;;5.77;3.40;;;4.60;99.90;;;5.38;100.00;98344.06;4923612;29;21005;-76
2023/04/27 06:07:50;;;;;;;3.70;2.50;;;4.70;99.90;;;5.41;100.00;98346.34;4922560;29;20464;-75
2023/04/27 06:10:22;;;;;;;5.10;2.90;;;4.70;99.90;;;5.47;100.00;98350.94;4918007;29;21069;-75
2023/04/27 06:12:52;;;;;;;5.63;2.67;;;4.80;99.90;;;5.52;100.00;98349.53;4920612;29;20575;-75
2023/04/27 06:15:21;;;;;;;5.40;3.20;;;4.80;99.90;;;5.55;100.00;98359.59;4922078;29;20841;-75
2023/04/27 06:17:50;;;;;;;5.83;3.20;;;4.80;99.90;;;5.52;100.00;98354.72;4918744;29;21040;-75
2023/04/27 06:20:21;;;;;;;10.70;3.97;;;4.90;99.90;;;5.56;100.00;98353.47;4918693;29;20973;-75
2023/04/27 06:22:52;;;;;;;6.93;3.57;;;4.90;99.90;;;5.65;100.00;98356.13;4923407;29;20954;-75
2023/04/27 06:25:24;;;;;;;4.50;3.40;;;4.90;99.90;;;5.69;100.00;98358.28;4921247;29;20904;-75
2023/04/27 06:27:55;;;;;;;5.93;3.10;;;5.00;99.90;;;5.71;100.00;98363.31;4919148;29;20465;-74
2023/04/27 06:30:27;;;;;;;7.57;3.47;;;5.10;99.90;;;5.76;100.00;98361.91;4919901;29;20600;-75
2023/04/27 06:32:58;;;;;;;5.13;3.73;;;5.10;99.90;;;5.83;100.00;98362.94;4918790;29;20467;-75
2023/04/27 06:35:28;;;;;;;6.30;3.50;;;5.10;99.90;;;5.87;100.00;98356.50;4921762;29;20508;-75
2023/04/27 06:37:58;;;;;;;6.50;3.73;;;5.20;99.90;;;5.92;100.00;98353.47;4925001;29;20532;-75
2023/04/27 06:40:32;;;;;;;8.30;3.70;;;5.20;99.90;;;5.99;100.00;98357.09;4923974;29;20473;-75
2023/04/27 06:43:03;;;;;;;7.10;3.70;;;5.20;99.90;;;6.04;100.00;98357.44;4923752;29;20979;-75
2023/04/27 06:45:34;;;;;;;6.03;3.23;;;5.30;99.90;;;6.08;100.00;98359.59;4925250;29;20513;-75
2023/04/27 06:48:03;;;;;;;8.77;4.00;;;5.30;99.90;;;6.16;100.00;98358.03;4923605;29;20478;-75
2023/04/27 06:50:36;;;;;;;7.50;4.07;;;5.40;99.90;;;6.21;100.00;98355.81;4925298;29;20557;-76
2023/04/27 06:53:06;;;;;;;12.57;3.37;;;5.50;99.90;;;6.26;100.00;98353.56;4905329;29;20473;-76
2023/04/27 06:55:38;;;;;;;7.37;3.83;;;5.50;99.90;;;6.31;100.00;98352.16;4924773;29;20465;-76
2023/04/27 06:58:13;;;;;;;6.27;3.23;;;5.60;99.90;;;6.38;100.00;98349.75;4925868;29;20501;-75
2023/04/27 07:00:44;;;;;;;8.60;3.90;;;5.60;99.90;;;6.44;100.00;98347.38;4924289;29;20492;-75
2023/04/27 07:03:14;;;;;;;7.53;3.53;;;5.70;99.90;;;6.50;100.00;98343.31;4918793;29;20463;-75
2023/04/27 07:05:46;;;;;;;7.83;3.73;;;5.70;99.90;;;6.55;100.00;98347.09;4920497;29;20500;-74
2023/04/27 07:08:17;;;;;;;62.33;31.83;;;5.80;99.90;;;6.63;100.00;98340.31;4918201;29;20494;-75
2023/04/27 07:10:48;;;;;;;13.40;6.60;;;5.90;99.90;;;6.69;100.00;98335.31;4921122;29;20961;-75
2023/04/27 07:13:18;;;;;;;5.87;3.40;;;6.00;99.90;;;6.78;100.00;98333.56;4921426;29;20510;-76
2023/04/27 07:15:54;;;;;;;9.00;4.93;;;6.00;99.90;;;6.83;100.00;98326.94;4919092;29;20467;-75
2023/04/27 07:18:26;;;;;;;5.47;3.43;;;6.10;99.90;;;6.92;100.00;98327.78;4920107;29;20505;-76
2023/04/27 07:20:57;;;;;;;7.23;3.30;;;6.20;99.90;;;7.01;100.00;98330.22;4919579;29;20496;-75
2023/04/27 07:23:27;;;;;;;8.20;3.57;;;6.30;99.90;;;7.10;100.00;98328.50;4919648;29;20475;-74
2023/04/27 07:25:59;;;;;;;5.70;2.87;;;6.40;99.90;;;7.17;100.00;98323.47;4918779;29;20552;-75
2023/04/27 07:28:29;;;;;;;5.53;2.63;;;6.50;99.90;;;7.23;100.00;98331.44;4922891;29;20470;-74
2023/04/27 07:30:59;;;;;;;6.33;2.50;;;6.50;99.90;;;7.32;100.00;98324.50;4919865;29;20577;-75
2023/04/27 07:33:29;;;;;;;4.40;3.13;;;6.60;99.90;;;7.41;100.00;98332.16;4918517;29;20465;-75
2023/04/27 07:36:01;;;;;;;8.83;2.83;;;6.80;99.90;;;7.47;100.00;98336.69;4921352;29;20477;-74
2023/04/27 07:38:30;;;;;;;6.57;2.97;;;6.90;99.90;;;7.56;100.00;98330.56;4926564;29;20605;-74
2023/04/27 07:41:02;;;;;;;5.00;2.50;;;7.00;99.90;;;7.67;100.00;98328.59;4925977;29;20521;-75
2023/04/27 07:43:33;;;;;;;5.40;2.90;;;7.10;99.90;;;7.77;100.00;98337.88;4924237;29;20458;-75
2023/04/27 07:46:02;;;;;;;5.23;2.63;;;7.20;99.90;;;7.84;100.00;98338.06;4927567;29;20457;-74
2023/04/27 07:48:31;;;;;;;7.07;2.70;;;7.20;99.90;;;7.89;100.00;98336.56;4926942;29;21032;-75
2023/04/27 07:51:01;;;;;;;6.50;2.43;;;7.20;99.90;;;7.95;100.00;98335.09;4927790;29;20470;-74
2023/04/27 07:53:31;;;;;;;3.73;2.50;;;7.20;99.90;;;8.02;100.00;98330.88;4927307;29;20565;-75
2023/04/27 07:56:06;;;;;;;7.43;2.40;;;7.30;99.90;;;8.09;100.00;98337.03;4927339;29;20485;-74
2023/04/27 07:58:37;;;;;;;8.17;3.80;;;7.50;99.90;;;8.19;98.76;98332.47;4927133;29;20508;-75
2023/04/27 08:01:06;;;;;;;3.37;2.50;;;7.80;99.90;;;8.26;98.48;98335.25;4927417;29;20573;-74
2023/04/27 08:03:37;;;;;;;8.40;3.00;;;7.70;99.90;;;8.33;97.77;98337.06;4924960;29;20462;-75
2023/04/27 08:06:07;;;;;;;8.50;2.90;;;7.80;99.90;;;8.38;96.67;98337.38;4925429;29;20466;-74
2023/04/27 08:08:39;;;;;;;6.10;2.63;;;7.90;99.90;;;8.44;96.08;98325.47;4925164;29;20640;-74
2023/04/27 08:11:11;;;;;;;5.17;2.50;;;7.90;99.90;;;8.49;96.43;98324.00;4924394;29;20464;-75
2023/04/27 08:13:42;;;;;;;6.77;2.50;;;7.90;99.90;;;8.55;96.62;98328.53;4940645;28;20476;-75
2023/04/27 08:16:13;;;;;;;4.53;3.27;;;7.90;99.90;;;8.63;97.16;98325.09;4925611;29;21072;-75
2023/04/27 08:18:44;;;;;;;4.77;2.50;;;8.00;99.90;;;8.70;96.04;98323.44;4925449;29;20505;-75
2023/04/27 08:21:14;;;;;;;6.80;2.27;;;8.20;99.90;;;8.75;95.45;98328.16;4925404;29;20557;-76
2023/04/27 08:23:44;;;;;;;13.63;2.70;;;8.10;99.90;;;8.82;95.13;98323.88;4924617;29;20807;-75
2023/04/27 08:26:16;;;;;;;5.90;2.23;;;8.20;99.90;;;8.87;96.12;98327.63;4923943;29;20625;-76
2023/04/27 08:28:46;;;;;;;4.40;2.30;;;8.20;99.90;;;8.94;94.53;98312.13;4923518;29;20517;-75
2023/04/27 08:31:16;;;;;;;5.70;2.40;;;8.30;99.90;;;9.00;93.94;98311.44;4924453;29;20462;-75
2023/04/27 08:33:46;;;;;;;5.10;2.40;;;8.30;99.90;;;9.09;93.92;98305.19;4922007;29;20462;-75
2023/04/27 08:36:15;;;;;;;6.53;2.57;;;8.50;99.90;;;9.17;93.58;98304.31;4927007;29;20475;-75
2023/04/27 08:38:46;;;;;;;3.47;2.23;;;8.50;99.90;;;9.20;93.02;98304.78;4920670;29;20513;-76
2023/04/27 08:41:21;;;;;;;2.03;1.83;;;8.50;99.90;;;9.29;93.15;98303.78;4925565;29;20477;-73
2023/04/27 08:43:52;;;;;;;5.53;2.00;;;8.80;99.90;;;9.38;92.77;98305.34;4925252;29;20466;-74
2023/04/27 08:46:25;;;;;;;5.70;2.20;;;8.90;99.90;;;9.44;93.06;98299.41;4927017;29;20575;-74
2023/04/27 08:48:55;;;;;;;8.10;3.00;;;8.90;99.90;;;9.50;92.50;98303.16;4924977;29;20517;-74
2023/04/27 08:51:26;;;;;;;7.40;2.50;;;9.00;99.90;;;9.55;90.97;98306.03;4920720;29;21006;-74
2023/04/27 08:53:58;;;;;;;3.13;2.10;;;9.10;99.90;;;9.57;89.88;98302.28;4925485;29;20474;-74
2023/04/27 08:56:30;;;;;;;4.67;2.43;;;9.10;99.90;;;9.65;90.66;98295.38;4924242;29;20475;-74
2023/04/27 08:59:03;;;;;;;8.73;2.50;;;9.10;99.90;;;9.69;89.88;98296.63;4923574;29;20490;-74
2023/04/27 09:01:35;;;;;;;4.10;2.63;;;9.20;99.90;;;9.73;88.92;98297.91;4921623;29;20600;-74
2023/04/27 09:04:06;;;;;;;5.07;2.40;;;9.20;99.90;;;9.79;88.91;98298.03;4922626;29;21202;-75
2023/04/27 09:06:36;;;;;;;2.67;2.10;;;9.20;99.90;;;9.89;89.07;98298.59;4924418;29;20466;-75
2023/04/27 09:09:07;;;;;;;6.90;2.50;;;9.50;99.90;;;9.93;87.49;98296.44;4923181;29;20494;-77
2023/04/27 09:11:40;;;;;;;3.80;2.40;;;9.60;99.80;;;9.99;86.28;98298.38;4923578;29;21003;-76
2023/04/27 09:14:20;;;;;;;8.23;3.03;;;9.70;99.50;;;10.04;86.78;98296.03;4925450;29;20498;-75
2023/04/27 09:16:58;;;;;;;2.80;2.40;;;9.70;99.80;;;10.12;86.82;98285.50;4923431;29;20824;-75
2023/04/27 09:19:30;;;;;;;6.63;2.67;;;9.70;99.90;;;10.18;86.87;98287.44;4924488;29;20560;-75
2023/04/27 09:22:09;;;;;;;12.03;3.57;;;9.80;99.80;;;10.27;87.41;98281.16;4922907;29;20553;-76
2023/04/27 09:24:38;;;;;;;7.27;2.80;;;9.80;99.90;;;10.33;87.83;98280.41;4924826;29;20977;-75
2023/04/27 09:27:09;;;;;;;4.87;2.40;;;9.90;99.90;;;10.40;87.16;98283.94;4926720;29;20553;-75
2023/04/27 09:29:40;;;;;;;10.80;3.57;;;10.00;99.40;;;10.46;84.62;98280.59;4923798;29;20476;-75
2023/04/27 09:32:16;;;;;;;8.90;2.63;;;10.00;98.20;;;10.54;84.83;98277.09;4921852;29;20478;-75
2023/04/27 09:34:46;;;;;;;2.80;2.40;;;10.00;99.10;;;10.62;85.57;98273.56;4924196;29;20995;-75
2023/04/27 09:37:16;;;;;;;11.07;2.63;;;10.00;99.30;;;10.72;86.56;98268.88;4924076;29;20470;-76
2023/04/27 09:39:48;;;;;;;7.60;2.40;;;10.10;99.80;;;10.85;85.79;98275.06;4925376;29;20494;-75
2023/04/27 09:42:19;;;;;;;18.10;3.23;;;10.40;99.20;;;10.93;84.81;98271.56;4922112;29;20524;-75
2023/04/27 09:44:48;;;;;;;6.80;2.40;;;10.50;99.20;;;11.03;83.52;98272.88;4922668;29;20541;-75
2023/04/27 09:47:18;;;;;;;3.17;2.10;;;10.70;98.80;;;11.13;84.67;98269.16;4923690;29;20475;-75
2023/04/27 09:49:49;;;;;;;7.50;3.13;;;10.70;99.10;;;11.20;84.82;98268.22;4922963;29;20467;-75
2023/04/27 09:52:19;;;;;;;8.90;2.50;;;10.70;98.90;;;11.26;84.17;98264.88;4923059;29;20525;-75
2023/04/27 09:54:49;;;;;;;4.13;2.40;;;10.70;98.90;;;11.32;83.04;98260.69;4925733;29;20558;-75
2023/04/27 09:57:36;;;;;;;33.17;16.87;;;10.70;98.60;;;11.41;82.95;98262.19;4924927;29;21023;-75
2023/04/27 10:00:24;;;;;;;4.57;2.40;;;10.90;98.60;;;11.49;82.01;98255.00;4921157;29;21371;-75
2023/04/27 10:03:15;;;;;;;5.43;2.53;;;11.10;98.10;;;11.55;79.92;98256.91;4925198;29;20479;-74
2023/04/27 10:06:35;;;;;;;8.57;2.37;;;11.00;98.00;;;11.65;80.06;98258.38;4925924;29;20493;-75
2023/04/27 10:09:06;;;;;;;15.90;2.20;;;11.20;98.00;;;11.67;78.57;98259.81;4925731;29;20474;-74
2023/04/27 10:11:40;;;;;;;8.67;2.03;;;11.10;97.70;;;11.72;76.70;98259.28;4925514;29;20551;-75
2023/04/27 10:14:17;;;;;;;5.90;2.37;;;11.20;97.00;;;11.75;75.63;98261.53;4925651;29;20463;-75
2023/04/27 10:16:51;;;;;;;2.90;1.93;;;11.20;96.90;;;11.79;75.03;98257.53;4925373;29;20882;-75
2023/04/27 10:19:23;;;;;;;9.07;2.80;;;11.30;96.80;;;11.83;74.55;98264.84;4924227;29;20494;-76
2023/04/27 10:21:56;;;;;;;4.83;2.13;;;11.30;96.80;;;11.92;74.85;98263.69;4926208;29;20470;-75
2023/04/27 10:24:38;;;;;;;4.93;2.33;;;11.30;96.80;;;11.97;73.58;98265.75;4926153;29;20546;-75
2023/04/27 10:27:10;;;;;;;7.47;2.70;;;11.30;96.40;;;12.03;73.35;98264.97;4926539;29;20525;-75
2023/04/27 10:29:43;;;;;;;5.20;2.20;;;11.60;96.70;;;12.14;73.48;98255.78;4923766;29;20470;-75
2023/04/27 10:32:20;;;;;;;15.37;2.60;;;11.70;96.80;;;12.21;75.21;98260.06;4924260;29;20463;-75
2023/04/27 10:34:49;;;;;;;7.17;2.53;;;11.80;97.20;;;12.25;74.01;98257.88;4924402;29;20876;-75
2023/04/27 10:37:23;;;;;;;5.70;2.33;;;11.70;96.50;;;12.34;74.36;98256.72;4924237;29;20481;-75
2023/04/27 10:40:04;;;;;;;9.20;3.10;;;11.80;96.90;;;12.42;73.50;98254.75;4924469;29;20541;-75
2023/04/27 10:42:37;;;;;;;9.73;3.37;;;12.00;96.50;;;12.47;73.28;98247.09;4924855;29;20471;-76